createdAt,value
2023-08-15T00:01:17.899Z,98009.69
2023-08-15T00:03:48.361Z,98005.28
2023-08-15T00:06:16.715Z,98008.72
2023-08-15T00:08:45.181Z,98006.78
2023-08-15T00:11:13.477Z,98012.03
2023-08-15T00:13:41.930Z,98004.06
2023-08-15T00:16:10.220Z,97996.53
2023-08-15T00:18:39.629Z,98003.44
2023-08-15T00:21:09.402Z,97994.88
2023-08-15T00:23:37.927Z,98010.59
2023-08-15T00:26:06.111Z,98007.47
2023-08-15T00:28:34.278Z,97996.66
2023-08-15T00:31:02.601Z,98016.09
2023-08-15T00:33:30.751Z,98014.09
2023-08-15T00:35:58.843Z,98006.47
2023-08-15T00:38:28.410Z,98020.59
2023-08-15T00:40:56.516Z,98020.03
2023-08-15T00:43:24.753Z,98020.28
2023-08-15T00:45:53.505Z,98015.06
2023-08-15T00:48:24.108Z,98003.78
2023-08-15T00:50:52.399Z,98017.16
2023-08-15T00:53:22.074Z,98005.44
2023-08-15T00:55:53.265Z,98014.00
2023-08-15T00:58:22.415Z,98010.69
2023-08-15T01:00:51.881Z,98009.94
2023-08-15T01:03:20.752Z,98009.25
2023-08-15T01:05:50.033Z,98012.91
2023-08-15T01:08:19.265Z,98014.91
2023-08-15T01:10:47.449Z,98015.13
2023-08-15T01:13:24.520Z,98018.69
2023-08-15T01:15:54.486Z,98014.38
2023-08-15T01:18:29.433Z,97996.47
2023-08-15T01:20:58.680Z,98001.09
2023-08-15T01:23:36.449Z,98020.97
2023-08-15T01:26:04.579Z,98014.91
2023-08-15T01:28:33.565Z,98011.38
2023-08-15T01:31:08.088Z,98019.75
2023-08-15T01:33:40.245Z,98017.34
2023-08-15T01:36:14.389Z,97986.59
2023-08-15T01:38:47.258Z,97990.50
2023-08-15T01:41:20.525Z,97979.50
2023-08-15T01:43:50.249Z,97986.09
2023-08-15T01:46:18.624Z,97984.94
2023-08-15T01:48:46.872Z,97981.91
2023-08-15T01:51:15.866Z,97985.88
2023-08-15T01:53:49.559Z,97988.81
2023-08-15T01:56:17.591Z,97988.31
2023-08-15T01:58:45.598Z,97988.38
2023-08-15T02:01:13.956Z,97978.16
2023-08-15T02:03:42.140Z,97971.25
2023-08-15T02:06:10.535Z,97974.00
2023-08-15T02:08:38.650Z,97970.00
2023-08-15T02:11:08.393Z,97974.19
2023-08-15T02:13:36.577Z,97973.66
2023-08-15T02:16:05.082Z,97970.84
2023-08-15T02:18:34.406Z,97978.91
2023-08-15T02:21:02.455Z,97968.16
2023-08-15T02:23:31.817Z,97974.09
2023-08-15T02:26:00.209Z,97980.28
2023-08-15T02:28:29.797Z,97974.41
2023-08-15T02:30:58.223Z,97960.19
2023-08-15T02:33:27.574Z,97973.69
2023-08-15T02:35:56.134Z,97963.56
2023-08-15T02:38:24.361Z,97985.09
2023-08-15T02:40:52.489Z,97984.38
2023-08-15T02:43:20.805Z,97979.56
2023-08-15T02:45:50.222Z,97976.94
2023-08-15T02:48:18.511Z,97981.97
2023-08-15T02:50:47.656Z,97990.53
2023-08-15T02:53:16.043Z,97989.22
2023-08-15T02:55:44.437Z,97996.06
2023-08-15T02:58:12.516Z,97994.38
2023-08-15T03:00:40.614Z,98000.47
2023-08-15T03:03:12.328Z,97990.28
2023-08-15T03:05:41.629Z,97978.34
2023-08-15T03:08:09.842Z,97976.38
2023-08-15T03:10:40.341Z,97971.78
2023-08-15T03:13:08.584Z,97974.91
2023-08-15T03:15:38.376Z,97967.59
2023-08-15T03:18:06.904Z,97973.25
2023-08-15T03:20:36.391Z,97960.03
2023-08-15T03:23:04.762Z,97976.69
2023-08-15T03:25:32.866Z,97981.78
2023-08-15T03:28:01.077Z,97955.75
2023-08-15T03:30:29.307Z,97979.81
2023-08-15T03:32:57.536Z,97991.09
2023-08-15T03:35:25.681Z,97978.44
2023-08-15T03:37:55.518Z,97995.56
2023-08-15T03:40:23.707Z,97991.06
2023-08-15T03:42:51.856Z,98008.00
2023-08-15T03:45:20.104Z,98006.13
2023-08-15T03:47:49.593Z,98004.25
2023-08-15T03:50:17.734Z,97986.59
2023-08-15T03:52:45.861Z,97988.56
2023-08-15T03:55:15.963Z,97983.56
2023-08-15T03:57:44.185Z,97992.75
2023-08-15T04:00:14.667Z,98013.97
2023-08-15T04:02:43.102Z,98020.13
2023-08-15T04:05:12.520Z,98030.47
2023-08-15T04:07:41.443Z,98021.81
2023-08-15T04:10:13.086Z,98010.41
2023-08-15T04:12:42.818Z,98011.38
2023-08-15T04:15:11.814Z,98021.63
2023-08-15T04:17:40.462Z,98020.53
2023-08-15T04:20:10.918Z,98018.88
2023-08-15T04:22:39.473Z,98025.13
2023-08-15T04:25:09.402Z,98017.00
2023-08-15T04:27:37.829Z,98023.47
2023-08-15T04:30:10.373Z,98024.63
2023-08-15T04:32:38.605Z,98011.66
2023-08-15T04:35:07.444Z,98017.81
2023-08-15T04:37:35.876Z,98013.22
2023-08-15T04:40:04.854Z,98008.94
2023-08-15T04:42:33.163Z,98013.56
2023-08-15T04:45:01.605Z,98010.22
2023-08-15T04:47:31.134Z,98024.75
2023-08-15T04:49:59.413Z,98030.72
2023-08-15T04:52:27.928Z,98020.97
2023-08-15T04:54:56.488Z,98032.59
2023-08-15T04:57:25.154Z,98041.06
2023-08-15T04:59:53.773Z,98044.22
2023-08-15T05:02:22.517Z,98032.72
2023-08-15T05:04:52.446Z,98041.94
2023-08-15T05:07:21.086Z,98037.28
2023-08-15T05:09:49.822Z,98039.00
2023-08-15T05:12:18.230Z,98052.09
2023-08-15T05:14:46.430Z,98047.41
2023-08-15T05:17:14.974Z,98049.19
2023-08-15T05:19:43.416Z,98036.34
2023-08-15T05:22:13.152Z,98045.28
2023-08-15T05:24:41.580Z,98049.78
2023-08-15T05:27:14.093Z,98042.03
2023-08-15T05:29:43.601Z,98047.13
2023-08-15T05:32:11.964Z,98046.75
2023-08-15T05:34:40.787Z,98043.16
2023-08-15T05:37:08.990Z,98050.38
2023-08-15T05:39:38.973Z,98040.66
2023-08-15T05:42:07.361Z,98037.34
2023-08-15T05:44:35.912Z,98031.81
2023-08-15T05:47:04.113Z,98024.56
2023-08-15T05:49:32.994Z,98012.75
2023-08-15T05:52:02.799Z,98033.03
2023-08-15T05:54:34.682Z,98032.25
2023-08-15T05:57:04.805Z,98020.94
2023-08-15T05:59:33.053Z,98047.56
2023-08-15T06:02:02.924Z,98035.88
2023-08-15T06:04:31.577Z,98057.97
2023-08-15T06:07:00.423Z,98054.78
2023-08-15T06:09:28.802Z,98067.53
2023-08-15T06:11:56.989Z,98071.13
2023-08-15T06:14:27.612Z,98068.06
2023-08-15T06:16:56.345Z,98068.19
2023-08-15T06:19:25.409Z,98053.53
2023-08-15T06:21:54.061Z,98054.66
2023-08-15T06:24:22.643Z,98039.97
2023-08-15T06:26:51.643Z,98036.50
2023-08-15T06:29:20.052Z,98035.38
2023-08-15T06:31:49.944Z,98023.19
2023-08-15T06:34:18.685Z,98029.88
2023-08-15T06:36:48.335Z,98035.59
2023-08-15T06:39:16.854Z,98029.97
2023-08-15T06:41:45.735Z,98032.44
2023-08-15T06:44:14.034Z,98044.00
2023-08-15T06:46:43.343Z,98041.00
2023-08-15T06:49:13.010Z,98026.00
2023-08-15T06:51:41.592Z,98032.94
2023-08-15T06:54:10.210Z,98007.31
2023-08-15T06:56:38.773Z,98011.28
2023-08-15T06:59:07.462Z,98018.19
2023-08-15T07:01:35.642Z,98012.63
2023-08-15T07:04:03.978Z,98024.53
2023-08-15T07:06:33.809Z,98021.06
2023-08-15T07:09:01.927Z,98023.34
2023-08-15T07:11:30.177Z,98023.53
2023-08-15T07:13:58.467Z,98014.66
2023-08-15T07:16:28.035Z,98006.84
2023-08-15T07:18:56.527Z,98011.16
2023-08-15T07:21:28.725Z,98008.84
2023-08-15T07:23:58.437Z,98026.16
2023-08-15T07:26:26.621Z,98032.69
2023-08-15T07:28:55.470Z,98028.94
2023-08-15T07:31:23.820Z,98036.59
2023-08-15T07:33:52.311Z,98035.16
2023-08-15T07:36:21.393Z,98021.03
2023-08-15T07:38:49.850Z,98031.59
2023-08-15T07:41:19.886Z,98027.56
2023-08-15T07:43:48.757Z,98014.50
2023-08-15T07:46:17.353Z,98015.22
2023-08-15T07:48:46.741Z,98015.75
2023-08-15T07:51:16.661Z,98016.53
2023-08-15T07:53:45.389Z,98024.47
2023-08-15T07:56:14.096Z,98027.13
2023-08-15T07:58:44.692Z,98029.34
2023-08-15T08:01:13.503Z,98027.94
2023-08-15T08:03:43.790Z,98020.56
2023-08-15T08:06:31.743Z,98012.47
2023-08-15T08:09:00.858Z,98028.16
2023-08-15T08:11:29.347Z,98025.34
2023-08-15T08:13:59.876Z,98030.97
2023-08-15T08:16:28.876Z,98027.47
2023-08-15T08:18:59.483Z,98031.88
2023-08-15T08:21:28.634Z,98029.28
2023-08-15T08:23:57.417Z,98035.97
2023-08-15T08:26:25.798Z,98026.47
2023-08-15T08:28:54.556Z,98030.31
2023-08-15T08:31:24.407Z,98032.28
2023-08-15T08:33:52.974Z,98031.63
2023-08-15T08:36:21.687Z,98025.66
2023-08-15T08:38:50.050Z,98033.28
2023-08-15T08:41:19.948Z,98023.94
2023-08-15T08:43:49.135Z,98031.72
2023-08-15T08:46:18.764Z,98018.03
2023-08-15T08:48:50.676Z,98028.25
2023-08-15T08:51:22.016Z,98036.13
2023-08-15T08:53:50.360Z,98024.00
2023-08-15T08:56:21.308Z,98012.81
2023-08-15T08:58:52.379Z,98002.47
2023-08-15T09:01:21.134Z,98007.03
2023-08-15T09:03:51.819Z,98007.81
2023-08-15T09:06:20.810Z,97998.44
2023-08-15T09:08:49.286Z,97997.84
2023-08-15T09:11:18.091Z,98001.72
2023-08-15T09:13:49.728Z,98010.47
2023-08-15T09:16:18.691Z,98009.06
2023-08-15T09:18:50.810Z,97997.84
2023-08-15T09:21:19.284Z,98000.66
2023-08-15T09:23:48.646Z,97990.06
2023-08-15T09:26:18.012Z,98001.34
2023-08-15T09:28:47.127Z,98006.28
2023-08-15T09:31:15.557Z,97992.91
2023-08-15T09:33:44.274Z,98006.16
2023-08-15T09:36:14.397Z,97993.25
2023-08-15T09:38:42.949Z,97997.81
2023-08-15T09:41:14.464Z,98001.81
2023-08-15T09:43:52.774Z,97999.06
2023-08-15T09:46:24.732Z,97992.34
2023-08-15T09:48:54.657Z,97998.97
2023-08-15T09:51:26.556Z,97994.94
2023-08-15T09:53:55.410Z,97997.22
2023-08-15T09:56:24.131Z,97996.63
2023-08-15T09:58:52.361Z,97991.06
2023-08-15T10:01:26.141Z,97996.53
2023-08-15T10:03:56.354Z,97990.66
2023-08-15T10:06:29.923Z,97994.19
2023-08-15T10:09:00.942Z,97999.66
2023-08-15T10:11:31.871Z,97993.13
2023-08-15T10:14:00.292Z,97993.22
2023-08-15T10:16:29.126Z,97995.00
2023-08-15T10:19:01.453Z,97999.84
2023-08-15T10:21:49.423Z,97989.56
2023-08-15T10:24:17.762Z,97999.03
2023-08-15T10:26:47.379Z,98000.66
2023-08-15T10:29:16.079Z,97991.72
2023-08-15T10:31:45.289Z,97987.28
2023-08-15T10:34:15.893Z,97988.09
2023-08-15T10:36:48.093Z,97987.97
2023-08-15T10:39:17.594Z,97985.38
2023-08-15T10:41:46.034Z,97984.41
2023-08-15T10:44:14.331Z,97982.91
2023-08-15T10:46:42.902Z,97988.88
2023-08-15T10:49:13.078Z,97990.22
2023-08-15T10:51:43.727Z,97979.75
2023-08-15T10:54:16.031Z,97984.56
2023-08-15T10:56:45.484Z,97989.38
2023-08-15T10:59:16.392Z,97986.19
2023-08-15T11:01:46.443Z,97998.81
2023-08-15T11:04:16.690Z,97987.19
2023-08-15T11:06:46.978Z,97999.41
2023-08-15T11:09:17.168Z,97995.16
2023-08-15T11:11:46.532Z,98005.06
2023-08-15T11:14:19.640Z,97993.16
2023-08-15T11:16:49.390Z,97994.16
2023-08-15T11:19:17.959Z,98002.78
2023-08-15T11:21:46.286Z,98002.72
2023-08-15T11:24:14.439Z,98006.03
2023-08-15T11:26:44.120Z,98002.78
2023-08-15T11:29:14.262Z,98008.22
2023-08-15T11:31:43.679Z,97997.72
2023-08-15T11:34:13.408Z,98003.84
2023-08-15T11:36:42.120Z,98002.72
2023-08-15T11:39:14.458Z,97999.38
2023-08-15T11:41:46.275Z,97992.09
2023-08-15T11:44:14.428Z,97993.06
2023-08-15T11:49:18.719Z,98008.03
2023-08-15T11:51:47.884Z,98012.88
2023-08-15T11:54:16.518Z,98011.03
2023-08-15T11:56:53.202Z,98015.16
2023-08-15T11:59:21.830Z,98015.50
2023-08-15T12:01:52.274Z,98012.19
2023-08-15T12:04:21.666Z,97999.41
2023-08-15T12:06:52.130Z,98004.38
2023-08-15T12:09:21.068Z,98025.25
2023-08-15T12:11:50.116Z,98023.97
2023-08-15T12:14:23.783Z,98013.69
2023-08-15T12:16:52.117Z,98017.31
2023-08-15T12:19:23.013Z,98019.00
2023-08-15T12:21:54.322Z,98037.19
2023-08-15T12:24:23.998Z,98027.88
2023-08-15T12:26:52.405Z,98031.00
2023-08-15T12:29:20.808Z,98021.88
2023-08-15T12:32:11.093Z,98012.31
2023-08-15T12:34:39.626Z,98025.41
2023-08-15T12:37:07.830Z,98018.47
2023-08-15T12:39:36.275Z,98004.53
2023-08-15T12:42:05.502Z,98017.38
2023-08-15T12:44:33.856Z,98011.09
2023-08-15T12:47:02.421Z,98015.91
2023-08-15T12:49:32.498Z,98012.09
2023-08-15T12:52:00.974Z,98000.81
2023-08-15T12:54:29.292Z,98001.81
2023-08-15T12:56:58.023Z,97993.13
2023-08-15T12:59:26.416Z,98000.13
2023-08-15T13:01:55.168Z,97986.16
2023-08-15T13:04:23.575Z,97973.63
2023-08-15T13:06:53.480Z,97986.88
2023-08-15T13:09:22.029Z,97982.22
2023-08-15T13:11:50.260Z,97972.25
2023-08-15T13:14:22.554Z,97968.97
2023-08-15T13:16:53.394Z,97978.56
2023-08-15T13:19:21.644Z,97980.25
2023-08-15T13:21:50.153Z,97969.63
2023-08-15T13:24:20.190Z,97970.28
2023-08-15T13:26:48.581Z,97966.63
2023-08-15T13:29:16.870Z,97963.34
2023-08-15T13:31:45.226Z,97963.00
2023-08-15T13:34:14.113Z,97962.19
2023-08-15T13:36:42.306Z,97948.75
2023-08-15T13:39:11.686Z,97949.06
2023-08-15T13:41:42.142Z,97945.09
2023-08-15T13:44:11.430Z,97953.06
2023-08-15T13:46:39.782Z,97952.72
2023-08-15T13:49:07.968Z,97944.78
2023-08-15T13:51:36.341Z,97935.44
2023-08-15T13:54:06.370Z,97939.75
2023-08-15T13:56:34.474Z,97940.09
2023-08-15T13:59:04.360Z,97941.13
2023-08-15T14:01:34.512Z,97944.13
2023-08-15T14:04:03.693Z,97930.16
2023-08-15T14:06:32.218Z,97955.19
2023-08-15T14:09:00.761Z,97962.28
2023-08-15T14:11:29.664Z,97953.00
2023-08-15T14:13:57.973Z,97958.44
2023-08-15T14:16:28.559Z,97960.78
2023-08-15T14:18:58.380Z,97964.38
2023-08-15T14:21:26.995Z,97946.69
2023-08-15T14:23:55.571Z,97963.53
2023-08-15T14:26:23.989Z,97961.41
2023-08-15T14:28:54.494Z,97968.59
2023-08-15T14:31:23.054Z,97970.84
2023-08-15T14:33:53.673Z,97978.81
2023-08-15T14:36:22.513Z,97980.78
2023-08-15T14:38:52.800Z,97978.78
2023-08-15T14:41:23.152Z,97986.81
2023-08-15T14:43:51.857Z,97988.38
2023-08-15T14:46:20.918Z,97976.84
2023-08-15T14:48:49.389Z,97985.94
2023-08-15T14:51:21.342Z,97994.28
2023-08-15T14:53:49.865Z,97984.53
2023-08-15T14:56:18.740Z,97981.88
2023-08-15T14:58:47.464Z,97980.66
2023-08-15T15:01:16.134Z,97978.28
2023-08-15T15:03:44.922Z,97978.09
2023-08-15T15:06:14.198Z,97974.34
2023-08-15T15:08:44.307Z,97975.97
2023-08-15T15:11:14.418Z,97974.53
2023-08-15T15:13:45.365Z,97969.78
2023-08-15T15:16:15.005Z,97972.69
2023-08-15T15:18:44.298Z,97958.88
2023-08-15T15:21:12.667Z,97959.31
2023-08-15T15:23:45.771Z,97951.69
2023-08-15T15:26:15.510Z,97951.13
2023-08-15T15:28:43.994Z,97947.25
2023-08-15T15:31:12.812Z,97944.47
2023-08-15T15:33:42.668Z,97945.25
2023-08-15T15:36:11.752Z,97941.63
2023-08-15T15:38:43.466Z,97943.38
2023-08-15T15:41:13.476Z,97941.75
2023-08-15T15:43:42.060Z,97946.38
2023-08-15T15:46:10.877Z,97943.22
2023-08-15T15:48:39.958Z,97950.38
2023-08-15T15:51:08.475Z,97961.78
2023-08-15T15:53:37.289Z,97963.13
2023-08-15T15:56:06.341Z,97968.06
2023-08-15T15:58:36.293Z,97979.88
2023-08-15T16:01:04.669Z,97991.44
2023-08-15T16:03:34.143Z,97992.41
2023-08-15T16:06:02.803Z,97990.44
2023-08-15T16:08:31.105Z,97990.13
2023-08-15T16:10:59.607Z,97992.94
2023-08-15T16:13:28.496Z,97993.41
2023-08-15T16:15:58.273Z,97991.56
2023-08-15T16:18:27.508Z,97992.88
2023-08-15T16:20:55.617Z,97987.16
2023-08-15T16:23:24.520Z,97987.91
2023-08-15T16:25:53.897Z,97979.53
2023-08-15T16:28:22.268Z,97984.50
2023-08-15T16:30:50.877Z,97989.75
2023-08-15T16:33:21.170Z,97999.06
2023-08-15T16:35:49.639Z,97999.66
2023-08-15T16:38:18.461Z,98009.44
2023-08-15T16:40:46.866Z,98008.53
2023-08-15T16:43:16.704Z,98022.78
2023-08-15T16:45:46.630Z,98032.28
2023-08-15T16:48:16.437Z,98037.25
2023-08-15T16:50:46.558Z,98031.66
2023-08-15T16:53:15.199Z,98034.72
2023-08-15T16:55:46.886Z,98029.84
2023-08-15T16:58:16.007Z,98036.22
2023-08-15T17:00:44.624Z,98046.50
2023-08-15T17:03:13.346Z,98039.16
2023-08-15T17:05:41.776Z,98053.59
2023-08-15T17:08:11.710Z,98048.78
2023-08-15T17:10:40.202Z,98059.38
2023-08-15T17:13:08.679Z,98063.91
2023-08-15T17:15:36.905Z,98042.59
2023-08-15T17:18:06.027Z,98055.59
2023-08-15T17:20:34.964Z,98066.19
2023-08-15T17:23:03.130Z,98069.72
2023-08-15T17:25:33.013Z,98071.56
2023-08-15T17:28:01.357Z,98075.91
2023-08-15T17:30:31.328Z,98076.81
2023-08-15T17:33:00.293Z,98077.59
2023-08-15T17:35:28.889Z,98078.94
2023-08-15T17:37:58.204Z,98078.41
2023-08-15T17:40:26.549Z,98072.59
2023-08-15T17:42:56.604Z,98084.88
2023-08-15T17:45:25.015Z,98088.03
2023-08-15T17:47:53.845Z,98093.84
2023-08-15T17:50:22.323Z,98082.06
2023-08-15T17:52:51.187Z,98087.41
2023-08-15T17:55:19.442Z,98093.97
2023-08-15T17:57:48.690Z,98095.19
2023-08-15T18:00:19.403Z,98103.31
2023-08-15T18:02:47.776Z,98104.97
2023-08-15T18:05:17.240Z,98109.44
2023-08-15T18:07:45.976Z,98106.25
2023-08-15T18:10:14.623Z,98113.59
2023-08-15T18:12:44.101Z,98112.72
2023-08-15T18:15:13.738Z,98125.75
2023-08-15T18:17:43.572Z,98123.03
2023-08-15T18:20:12.324Z,98117.50
2023-08-15T18:22:40.782Z,98126.56
2023-08-15T18:25:09.990Z,98120.28
2023-08-15T18:27:38.306Z,98116.50
2023-08-15T18:30:08.016Z,98128.63
2023-08-15T18:32:36.719Z,98132.06
2023-08-15T18:35:08.521Z,98138.63
2023-08-15T18:37:36.678Z,98143.41
2023-08-15T18:40:05.308Z,98130.25
2023-08-15T18:42:33.621Z,98135.97
2023-08-15T18:45:01.916Z,98139.06
2023-08-15T18:47:30.288Z,98134.34
2023-08-15T18:49:58.443Z,98147.84
2023-08-15T18:52:30.344Z,98148.66
2023-08-15T18:54:59.570Z,98146.47
2023-08-15T18:57:28.605Z,98150.34
2023-08-15T18:59:57.119Z,98138.16
2023-08-15T19:02:26.022Z,98138.31
2023-08-15T19:04:59.218Z,98140.97
2023-08-15T19:07:29.259Z,98141.41
2023-08-15T19:09:58.064Z,98145.69
2023-08-15T19:12:28.678Z,98137.06
2023-08-15T19:15:02.786Z,98142.63
2023-08-15T19:17:31.174Z,98147.91
2023-08-15T19:20:00.131Z,98151.81
2023-08-15T19:22:30.059Z,98152.09
2023-08-15T19:24:58.343Z,98152.25
2023-08-15T19:27:27.252Z,98154.44
2023-08-15T19:29:56.177Z,98151.94
2023-08-15T19:32:24.828Z,98158.47
2023-08-15T19:34:53.479Z,98160.53
2023-08-15T19:37:36.240Z,98163.72
2023-08-15T19:40:10.428Z,98172.19
2023-08-15T19:42:42.760Z,98175.66
2023-08-15T19:45:15.436Z,98178.06
2023-08-15T19:47:44.235Z,98167.75
2023-08-15T19:50:12.976Z,98178.03
2023-08-15T19:52:41.198Z,98184.25
2023-08-15T19:55:12.139Z,98184.38
2023-08-15T19:57:41.417Z,98183.25
2023-08-15T20:00:11.841Z,98183.94
2023-08-15T20:02:41.293Z,98194.91
2023-08-15T20:05:10.806Z,98186.44
2023-08-15T20:07:40.202Z,98188.38
2023-08-15T20:10:12.508Z,98185.88
2023-08-15T20:12:41.472Z,98200.13
2023-08-15T20:15:10.881Z,98205.34
2023-08-15T20:17:39.498Z,98192.13
2023-08-15T20:20:09.132Z,98191.28
2023-08-15T20:22:37.743Z,98186.84
2023-08-15T20:25:07.186Z,98204.19
2023-08-15T20:27:36.974Z,98200.16
2023-08-15T20:30:06.258Z,98202.66
2023-08-15T20:32:34.603Z,98199.72
2023-08-15T20:35:03.332Z,98195.66
2023-08-15T20:37:32.665Z,98206.19
2023-08-15T20:40:00.878Z,98211.16
2023-08-15T20:42:29.010Z,98213.63
2023-08-15T20:44:59.037Z,98212.47
2023-08-15T20:47:27.249Z,98229.63
2023-08-15T20:49:55.292Z,98231.47
2023-08-15T20:52:24.060Z,98221.78
2023-08-15T20:54:52.629Z,98241.88
2023-08-15T20:57:20.659Z,98250.53
2023-08-15T20:59:48.796Z,98247.53
2023-08-15T21:02:18.377Z,98248.75
2023-08-15T21:04:46.598Z,98259.59
2023-08-15T21:07:14.770Z,98249.53
2023-08-15T21:09:42.886Z,98259.88
2023-08-15T21:12:11.240Z,98258.91
2023-08-15T21:14:39.232Z,98257.22
2023-08-15T21:17:07.729Z,98261.59
2023-08-15T21:19:37.703Z,98253.16
2023-08-15T21:22:06.901Z,98269.25
2023-08-15T21:24:35.429Z,98267.97
2023-08-15T21:27:03.860Z,98275.03
2023-08-15T21:29:32.599Z,98278.25
2023-08-15T21:32:01.886Z,98273.38
2023-08-15T21:34:30.597Z,98277.66
2023-08-15T21:37:00.236Z,98275.78
2023-08-15T21:39:28.819Z,98278.75
2023-08-15T21:41:57.497Z,98276.06
2023-08-15T21:44:26.019Z,98288.25
2023-08-15T21:46:54.550Z,98289.41
2023-08-15T21:49:22.951Z,98281.25
2023-08-15T21:51:51.237Z,98280.00
2023-08-15T21:54:21.869Z,98282.88
2023-08-15T21:56:50.769Z,98281.22
2023-08-15T21:59:19.267Z,98285.66
2023-08-15T22:01:47.966Z,98282.88
2023-08-15T22:04:16.327Z,98282.94
2023-08-15T22:06:44.539Z,98279.34
2023-08-15T22:09:12.658Z,98285.66
2023-08-15T22:11:42.383Z,98296.91
2023-08-15T22:14:10.666Z,98283.63
2023-08-15T22:16:39.096Z,98300.13
2023-08-15T22:19:07.446Z,98286.97
2023-08-15T22:21:35.561Z,98295.69
2023-08-15T22:24:04.879Z,98302.53
2023-08-15T22:26:33.322Z,98289.16
2023-08-15T22:29:02.745Z,98297.84
2023-08-15T22:31:31.355Z,98300.25
2023-08-15T22:34:01.017Z,98303.47
2023-08-15T22:36:29.840Z,98300.25
2023-08-15T22:38:57.995Z,98303.38
2023-08-15T22:41:26.383Z,98301.69
2023-08-15T22:43:54.593Z,98292.72
2023-08-15T22:46:24.473Z,98300.50
2023-08-15T22:48:53.281Z,98293.00
2023-08-15T22:51:21.506Z,98293.72
2023-08-15T22:53:49.582Z,98295.00
2023-08-15T22:56:17.628Z,98296.94
2023-08-15T22:58:46.038Z,98302.91
2023-08-15T23:01:14.212Z,98294.94
2023-08-15T23:03:44.403Z,98300.69
2023-08-15T23:06:12.776Z,98294.94
2023-08-15T23:08:41.939Z,98291.50
2023-08-15T23:11:10.161Z,98294.72
2023-08-15T23:13:38.388Z,98279.19
2023-08-15T23:16:06.867Z,98290.50
2023-08-15T23:18:35.103Z,98292.31
2023-08-15T23:21:04.955Z,98294.56
2023-08-15T23:23:33.211Z,98304.84
2023-08-15T23:26:01.929Z,98304.69
2023-08-15T23:28:29.952Z,98303.22
2023-08-15T23:30:58.457Z,98291.06
2023-08-15T23:33:26.990Z,98294.63
2023-08-15T23:35:55.435Z,98296.06
2023-08-15T23:38:25.030Z,98298.56
2023-08-15T23:40:54.460Z,98299.88
2023-08-15T23:43:22.777Z,98294.41
2023-08-15T23:45:53.125Z,98294.03
2023-08-15T23:48:21.429Z,98284.47
2023-08-15T23:50:49.552Z,98288.41
2023-08-15T23:53:18.008Z,98280.84
2023-08-15T23:55:47.854Z,98276.91
2023-08-15T23:58:15.972Z,98278.81
